Time;durP1;ratioP1;P1;durP2;ratioP2;P2;SDS_P1;SDS_P2;PMS_P1;PMS_P2;Temp;Humidity;BMP_temperature;BMP_pressure;BME280_temperature;BME280_humidity;BME280_pressure;Samples;Min_cycle;Max_cycle;Signal;HPM_P1;HPM_P2
2022/07/11 00:01:52;;;;;;;4.20;1.10;;;;;;;;;;5072703;28;20418;-60
2022/07/11 00:04:18;;;;;;;2.47;1.20;;;;;;;;;;5072986;28;20400;-60
2022/07/11 00:06:44;;;;;;;3.10;1.08;;;;;;;;;;5071898;28;20029;-60
2022/07/11 00:09:10;;;;;;;2.47;1.10;;;;;;;;;;5072881;28;20036;-60
2022/07/11 00:11:36;;;;;;;4.03;1.30;;;;;;;;;;5072513;28;20126;-60
2022/07/11 00:14:02;;;;;;;6.03;1.17;;;;;;;;;;5072363;28;20040;-60
2022/07/11 00:16:28;;;;;;;1.83;1.10;;;;;;;;;;5072411;28;20115;-60
2022/07/11 00:18:55;;;;;;;2.22;1.02;;;;;;;;;;5072691;28;20031;-60
2022/07/11 00:21:21;;;;;;;2.33;1.20;;;;;;;;;;5071888;28;20052;-60
2022/07/11 00:23:47;;;;;;;1.90;1.00;;;;;;;;;;5072739;28;20031;-60
2022/07/11 00:26:13;;;;;;;1.50;1.13;;;;;;;;;;5072246;28;20025;-60
2022/07/11 00:28:39;;;;;;;2.88;1.20;;;;;;;;;;5072392;28;20051;-60
2022/07/11 00:31:07;;;;;;;3.25;1.10;;;;;;;;;;5071859;28;20016;-60
2022/07/11 00:33:33;;;;;;;1.17;1.05;;;;;;;;;;5071857;28;20451;-60
2022/07/11 00:35:59;;;;;;;2.33;1.25;;;;;;;;;;5072218;28;20055;-60
2022/07/11 00:38:25;;;;;;;3.95;1.40;;;;;;;;;;5072060;28;20037;-60
2022/07/11 00:40:51;;;;;;;1.30;1.00;;;;;;;;;;5072104;28;20052;-60
2022/07/11 00:43:19;;;;;;;2.67;1.10;;;;;;;;;;5072212;28;20059;-60
2022/07/11 00:45:48;;;;;;;1.75;1.00;;;;;;;;;;5072006;28;20056;-61
2022/07/11 00:48:14;;;;;;;3.97;1.20;;;;;;;;;;5072091;28;20450;-60
2022/07/11 00:50:40;;;;;;;3.22;1.15;;;;;;;;;;5071849;28;20436;-60
2022/07/11 00:53:06;;;;;;;1.95;1.25;;;;;;;;;;5071826;28;20039;-60
2022/07/11 00:55:32;;;;;;;2.20;1.17;;;;;;;;;;5072144;28;20111;-60
2022/07/11 00:57:58;;;;;;;2.78;1.10;;;;;;;;;;5072159;28;20029;-60
2022/07/11 01:00:24;;;;;;;3.13;1.17;;;;;;;;;;5071848;28;20499;-60
2022/07/11 01:02:50;;;;;;;2.25;1.23;;;;;;;;;;5071903;28;20500;-60
2022/07/11 01:05:16;;;;;;;1.80;1.27;;;;;;;;;;5071635;28;20056;-61
2022/07/11 01:07:42;;;;;;;1.92;1.20;;;;;;;;;;5071693;28;20036;-60
2022/07/11 01:10:08;;;;;;;1.70;1.02;;;;;;;;;;5071883;28;20225;-60
2022/07/11 01:12:35;;;;;;;3.20;1.20;;;;;;;;;;5071784;28;20027;-60
2022/07/11 01:15:03;;;;;;;3.80;1.27;;;;;;;;;;5071707;28;20039;-60
2022/07/11 01:17:29;;;;;;;3.10;1.25;;;;;;;;;;5072273;28;20079;-60
2022/07/11 01:19:55;;;;;;;2.35;1.20;;;;;;;;;;5071539;28;20033;-60
2022/07/11 01:22:24;;;;;;;2.47;1.20;;;;;;;;;;5071682;28;20021;-60
2022/07/11 01:24:50;;;;;;;2.75;1.05;;;;;;;;;;5071646;28;20024;-60
2022/07/11 01:27:16;;;;;;;2.22;1.30;;;;;;;;;;5071661;28;20028;-60
2022/07/11 01:29:42;;;;;;;1.40;1.17;;;;;;;;;;5072113;28;20043;-60
2022/07/11 01:32:08;;;;;;;2.83;1.20;;;;;;;;;;5071879;28;20032;-60
2022/07/11 01:34:34;;;;;;;3.00;1.20;;;;;;;;;;5071118;28;20075;-60
2022/07/11 01:37:01;;;;;;;2.58;1.15;;;;;;;;;;5071210;28;20036;-60
2022/07/11 01:39:30;;;;;;;3.85;1.33;;;;;;;;;;5071446;28;20485;-60
2022/07/11 01:41:58;;;;;;;2.50;1.40;;;;;;;;;;5071914;28;20055;-60
2022/07/11 01:44:24;;;;;;;4.25;1.20;;;;;;;;;;5073098;28;20025;-60
2022/07/11 01:46:50;;;;;;;2.58;1.23;;;;;;;;;;5074844;28;20031;-60
2022/07/11 01:49:16;;;;;;;2.20;1.30;;;;;;;;;;5075296;28;20107;-60
2022/07/11 01:51:42;;;;;;;2.83;1.10;;;;;;;;;;5075156;28;20033;-60
2022/07/11 01:54:09;;;;;;;2.33;1.27;;;;;;;;;;5075041;28;20577;-60
2022/07/11 01:56:35;;;;;;;1.92;1.10;;;;;;;;;;5075497;28;20107;-60
2022/07/11 01:59:01;;;;;;;2.40;1.17;;;;;;;;;;5074936;28;20032;-60
2022/07/11 02:01:27;;;;;;;3.75;1.25;;;;;;;;;;5074599;28;20549;-60
2022/07/11 02:03:55;;;;;;;2.50;1.20;;;;;;;;;;5075018;28;20052;-60
2022/07/11 02:06:21;;;;;;;2.67;1.40;;;;;;;;;;5074884;28;20028;-60
2022/07/11 02:08:47;;;;;;;2.47;1.50;;;;;;;;;;5074860;28;20516;-60
2022/07/11 02:11:13;;;;;;;2.92;1.23;;;;;;;;;;5073769;28;20385;-60
2022/07/11 02:13:39;;;;;;;2.63;1.30;;;;;;;;;;5074752;28;20040;-60
2022/07/11 02:16:05;;;;;;;2.00;1.27;;;;;;;;;;5074520;28;20473;-60
2022/07/11 02:18:34;;;;;;;2.60;1.40;;;;;;;;;;5075137;28;20067;-60
2022/07/11 02:21:00;;;;;;;1.27;1.17;;;;;;;;;;5074649;28;20036;-60
2022/07/11 02:23:26;;;;;;;1.65;1.23;;;;;;;;;;5074471;28;20021;-60
2022/07/11 02:25:53;;;;;;;2.92;1.33;;;;;;;;;;5074682;28;20032;-60
2022/07/11 02:28:19;;;;;;;2.70;1.40;;;;;;;;;;5074406;28;20397;-60
2022/07/11 02:30:45;;;;;;;2.65;1.25;;;;;;;;;;5074165;28;20097;-60
2022/07/11 02:33:15;;;;;;;2.75;1.35;;;;;;;;;;5074295;28;20546;-60
2022/07/11 02:35:41;;;;;;;2.47;1.20;;;;;;;;;;5074018;28;20517;-60
2022/07/11 02:38:08;;;;;;;2.20;1.42;;;;;;;;;;5074183;28;20043;-60
2022/07/11 02:40:34;;;;;;;5.47;1.35;;;;;;;;;;5074787;28;20036;-60
2022/07/11 02:43:00;;;;;;;1.95;1.42;;;;;;;;;;5074111;28;20027;-60
2022/07/11 02:45:26;;;;;;;4.90;1.50;;;;;;;;;;5073803;28;20389;-60
2022/07/11 02:47:52;;;;;;;4.07;1.20;;;;;;;;;;5074214;28;20032;-60
2022/07/11 02:50:18;;;;;;;2.00;1.10;;;;;;;;;;5074034;28;20060;-60
2022/07/11 02:52:44;;;;;;;2.00;1.20;;;;;;;;;;5074044;28;20104;-60
2022/07/11 02:55:11;;;;;;;2.10;1.30;;;;;;;;;;5073628;28;20040;-60
2022/07/11 02:57:40;;;;;;;3.50;1.25;;;;;;;;;;5074192;28;20025;-60
2022/07/11 03:00:08;;;;;;;1.88;1.40;;;;;;;;;;5073549;28;20461;-60
2022/07/11 03:02:34;;;;;;;3.40;1.67;;;;;;;;;;5073886;28;20477;-60
2022/07/11 03:05:00;;;;;;;3.92;1.40;;;;;;;;;;5073817;28;20028;-60
2022/07/11 03:07:27;;;;;;;2.22;1.38;;;;;;;;;;5073822;28;20025;-60
2022/07/11 03:09:56;;;;;;;3.35;1.45;;;;;;;;;;5073748;28;20024;-60
2022/07/11 03:12:22;;;;;;;5.18;1.40;;;;;;;;;;5074032;28;20024;-60
2022/07/11 03:14:49;;;;;;;2.22;1.40;;;;;;;;;;5073181;28;20119;-60
2022/07/11 03:17:15;;;;;;;1.88;1.30;;;;;;;;;;5073579;28;20024;-60
2022/07/11 03:19:42;;;;;;;1.65;1.30;;;;;;;;;;5073534;28;20053;-60
2022/07/11 03:22:08;;;;;;;2.28;1.52;;;;;;;;;;5073400;28;20610;-60
2022/07/11 03:24:34;;;;;;;2.15;1.25;;;;;;;;;;5073374;28;20028;-60
2022/07/11 03:27:00;;;;;;;2.85;1.40;;;;;;;;;;5073680;28;20016;-60
2022/07/11 03:29:26;;;;;;;1.75;1.50;;;;;;;;;;5073077;28;20032;-60
2022/07/11 03:31:52;;;;;;;2.33;1.52;;;;;;;;;;5073187;28;20111;-60
2022/07/11 03:34:18;;;;;;;4.20;1.52;;;;;;;;;;5072902;28;20043;-60
2022/07/11 03:36:46;;;;;;;2.40;1.20;;;;;;;;;;5072841;28;20412;-60
2022/07/11 03:39:12;;;;;;;2.25;1.48;;;;;;;;;;5073087;28;20119;-60
2022/07/11 03:41:38;;;;;;;2.60;1.70;;;;;;;;;;5073474;28;20473;-60
2022/07/11 03:44:05;;;;;;;2.42;1.40;;;;;;;;;;5072603;28;20020;-60
2022/07/11 03:46:31;;;;;;;3.25;1.55;;;;;;;;;;5072928;28;20028;-60
2022/07/11 03:48:57;;;;;;;2.42;1.55;;;;;;;;;;5072932;28;20542;-60
2022/07/11 03:51:23;;;;;;;3.17;1.50;;;;;;;;;;5073054;28;20028;-60
2022/07/11 03:53:49;;;;;;;3.47;1.55;;;;;;;;;;5072951;28;20559;-60
2022/07/11 03:56:18;;;;;;;3.78;1.58;;;;;;;;;;5072664;28;20489;-60
2022/07/11 03:58:44;;;;;;;3.35;1.52;;;;;;;;;;5072351;28;20162;-60
2022/07/11 04:01:10;;;;;;;4.03;1.52;;;;;;;;;;5072704;28;20111;-60
2022/07/11 04:03:36;;;;;;;6.10;1.60;;;;;;;;;;5072499;28;20097;-60
2022/07/11 04:06:02;;;;;;;6.55;1.80;;;;;;;;;;5072157;28;20406;-60
2022/07/11 04:08:28;;;;;;;2.45;1.50;;;;;;;;;;5072500;28;20025;-60
2022/07/11 04:10:54;;;;;;;3.95;1.60;;;;;;;;;;5072392;28;20025;-60
2022/07/11 04:13:20;;;;;;;2.67;1.65;;;;;;;;;;5072270;28;20401;-60
2022/07/11 04:15:47;;;;;;;7.20;2.45;;;;;;;;;;5072317;28;20040;-60
2022/07/11 04:18:13;;;;;;;12.07;2.17;;;;;;;;;;5072394;28;20024;-60
2022/07/11 04:20:40;;;;;;;6.22;2.00;;;;;;;;;;5072314;28;20040;-60
2022/07/11 04:23:06;;;;;;;5.03;1.60;;;;;;;;;;5072519;28;20457;-60
2022/07/11 04:25:33;;;;;;;4.25;1.67;;;16.30;99.90;;;;;;5072217;28;20052;-59
2022/07/11 04:27:59;;;;;;;2.92;1.60;;;;;;;;;;5071998;28;20017;-59
2022/07/11 04:30:25;;;;;;;3.95;1.83;;;;;;;;;;5072134;28;20105;-60
2022/07/11 04:32:51;;;;;;;2.28;1.50;;;;;;;;;;5072058;28;20074;-59
2022/07/11 04:35:17;;;;;;;4.85;1.90;;;;;;;;;;5070588;28;20444;-60
2022/07/11 04:37:44;;;;;;;5.65;1.70;;;;;;;;;;5071906;28;20052;-60
2022/07/11 04:40:13;;;;;;;3.30;1.70;;;;;;;;;;5072421;28;20032;-59
2022/07/11 04:42:39;;;;;;;2.97;1.52;;;;;;;;;;5071724;28;20397;-59
2022/07/11 04:45:05;;;;;;;3.58;1.60;;;;;;;;;;5072146;28;20123;-59
2022/07/11 04:47:31;;;;;;;7.07;1.70;;;;;;;;;;5072030;28;20020;-59
2022/07/11 04:49:57;;;;;;;2.88;1.63;;;;;;;;;;5072347;28;20115;-60
2022/07/11 04:52:26;;;;;;;5.22;1.92;;;;;;;;;;5071827;28;20029;-59
2022/07/11 04:54:53;;;;;;;5.10;1.60;;;;;;;;;;5071803;28;20039;-60
2022/07/11 04:57:19;;;;;;;4.07;1.60;;;;;;;;;;5071932;28;20108;-59
2022/07/11 04:59:45;;;;;;;2.05;1.80;;;;;;;;;;5071882;28;20406;-60
2022/07/11 05:02:11;;;;;;;6.28;2.13;;;;;;;;;;5071961;28;20024;-60
2022/07/11 05:04:37;;;;;;;3.42;1.88;;;;;;;;;;5072163;28;20024;-60
2022/07/11 05:07:03;;;;;;;3.50;1.73;;;;;;;;;;5071738;28;20029;-59
2022/07/11 05:09:29;;;;;;;3.78;1.92;;;;;;;;;;5071771;28;20029;-60
2022/07/11 05:11:55;;;;;;;1.90;1.70;;;17.50;99.90;;;;;;5071442;28;20033;-59
2022/07/11 05:14:21;;;;;;;2.63;1.35;;;;;;;;;;5071988;28;20150;-60
2022/07/11 05:16:46;;;;;;;2.55;1.42;;;17.60;99.90;;;;;;5071761;28;20075;-59
2022/07/11 05:19:12;;;;;;;1.63;1.40;;;17.70;99.90;;;;;;5074854;28;20028;-59
2022/07/11 05:21:38;;;;;;;2.78;1.30;;;17.70;99.90;;;;;;5075669;28;20021;-59
2022/07/11 05:24:04;;;;;;;2.78;1.40;;;20.40;99.90;;;;;;5075398;28;20024;-59
2022/07/11 05:26:30;;;;;;;1.60;1.50;;;20.00;99.90;;;;;;5075336;28;20452;-61
2022/07/11 05:28:56;;;;;;;2.83;1.60;;;;;;;;;;5076087;28;20089;-60
2022/07/11 05:31:22;;;;;;;3.15;1.42;;;;;;;;;;5075714;28;20086;-60
2022/07/11 05:33:48;;;;;;;2.60;1.50;;;;;;;;;;5075355;28;20037;-60
2022/07/11 05:36:14;;;;;;;2.53;1.60;;;;;;;;;;5074946;28;20399;-60
2022/07/11 05:38:40;;;;;;;2.28;1.65;;;;;;;;;;5075390;28;20028;-60
2022/07/11 05:41:06;;;;;;;2.88;1.80;;;;;;;;;;5075101;28;20033;-60
2022/07/11 05:43:32;;;;;;;2.47;1.40;;;;;;;;;;5075629;28;20047;-60
2022/07/11 05:45:58;;;;;;;2.20;1.40;;;;;;;;;;5075213;28;20120;-60
2022/07/11 05:48:24;;;;;;;1.48;1.38;;;;;;;;;;5075131;28;20027;-60
2022/07/11 05:50:50;;;;;;;2.08;1.30;;;;;;;;;;5074870;28;20032;-60
2022/07/11 05:53:16;;;;;;;3.38;1.77;;;;;;;;;;5075344;28;20021;-59
2022/07/11 05:55:43;;;;;;;1.95;1.75;;;;;;;;;;5075099;28;20089;-60
2022/07/11 05:58:09;;;;;;;2.00;1.80;;;;;;;;;;5075068;28;20024;-60
2022/07/11 06:00:35;;;;;;;2.30;1.92;;;;;;;;;;5075025;28;20158;-60
2022/07/11 06:03:01;;;;;;;3.15;2.08;;;;;;;;;;5074913;28;20090;-60
2022/07/11 06:05:27;;;;;;;2.40;2.20;;;;;;;;;;5074741;28;20028;-60
2022/07/11 06:10:39;;;;;;;3.03;2.78;;;;;;;;;;5074676;28;20180;-60
2022/07/11 06:13:05;;;;;;;4.25;3.42;;;;;;;;;;5074527;28;20282;-60
2022/07/11 06:15:31;;;;;;;4.28;3.80;;;;;;;;;;5074697;28;20542;-60
2022/07/11 06:17:57;;;;;;;3.92;3.45;;;;;;;;;;5074782;28;20032;-60
2022/07/11 06:20:23;;;;;;;3.95;3.65;;;;;;;;;;5074931;28;20020;-60
2022/07/11 06:22:49;;;;;;;4.97;4.00;;;;;;;;;;5074193;28;20028;-60
2022/07/11 06:25:15;;;;;;;5.50;5.20;;;;;;;;;;5074545;28;20028;-60
2022/07/11 06:27:41;;;;;;;5.75;5.25;;;;;;;;;;5074509;28;20063;-60
2022/07/11 06:30:08;;;;;;;6.60;6.15;;;;;;;;;;5073597;28;20032;-60
2022/07/11 06:32:34;;;;;;;7.78;7.05;;;;;;;;;;5074474;28;20107;-60
2022/07/11 06:35:00;;;;;;;7.78;7.30;;;;;;;;;;5074343;28;20484;-59
2022/07/11 06:37:26;;;;;;;10.05;9.35;;;;;;;;;;5073898;28;20112;-60
2022/07/11 06:39:52;;;;;;;7.43;6.93;;;;;;;;;;5074488;28;20071;-60
2022/07/11 06:42:18;;;;;;;7.65;7.00;;;;;;;;;;5074251;28;20048;-60
2022/07/11 06:44:44;;;;;;;8.00;7.50;;;;;;;;;;5074489;28;20020;-60
2022/07/11 06:47:10;;;;;;;8.07;7.53;;;;;;;;;;5074412;28;20381;-60
2022/07/11 06:49:36;;;;;;;6.63;6.15;;;;;;;;;;5073989;28;20025;-60
2022/07/11 06:52:02;;;;;;;6.30;5.70;;;;;;;;;;5073805;28;20035;-60
2022/07/11 06:54:28;;;;;;;6.95;6.35;;;;;;;;;;5074049;28;20048;-60
2022/07/11 06:56:54;;;;;;;8.57;8.02;;;;;;;;;;5074393;28;20077;-60
2022/07/11 06:59:20;;;;;;;9.90;9.25;;;;;;;;;;5074117;28;20062;-60
2022/07/11 07:01:46;;;;;;;10.98;10.38;;;;;;;;;;5073989;28;20020;-60
2022/07/11 07:04:12;;;;;;;13.35;12.75;;;;;;;;;;5073670;28;20025;-60
2022/07/11 07:06:39;;;;;;;36.40;34.60;;;;;;;;;;5073671;28;20033;-60
2022/07/11 07:09:05;;;;;;;20.60;19.60;;;;;;;;;;5073933;28;20048;-60
2022/07/11 07:11:31;;;;;;;20.45;19.35;;;;;;;;;;5073866;28;20063;-60
2022/07/11 07:13:57;;;;;;;18.70;17.67;;;;;;;;;;5073782;28;20033;-60
2022/07/11 07:16:23;;;;;;;37.67;35.67;;;;;;;;;;5073525;28;20017;-60
2022/07/11 07:18:50;;;;;;;15.05;14.25;;;;;;;;;;5074068;28;20047;-60
2022/07/11 07:21:16;;;;;;;12.70;12.10;;;;;;;;;;5073288;28;20426;-60
2022/07/11 07:23:42;;;;;;;15.48;14.77;;;;;;;;;;5073415;28;20032;-60
2022/07/11 07:26:08;;;;;;;13.98;13.27;;;;;;;;;;5072584;28;20059;-61
2022/07/11 07:28:34;;;;;;;19.70;18.58;;;;;;;;;;5073415;28;20052;-60
2022/07/11 07:31:00;;;;;;;10.38;9.70;;;;;;;;;;5073276;28;20024;-60
2022/07/11 07:33:27;;;;;;;13.50;12.80;;;;;;;;;;5073264;28;20111;-60
2022/07/11 07:35:53;;;;;;;11.75;11.05;;;;;;;;;;5072807;28;20049;-60
2022/07/11 07:38:19;;;;;;;12.80;12.10;;;;;;;;;;5073087;28;20031;-60
2022/07/11 07:40:45;;;;;;;13.88;12.98;;;;;;;;;;5073569;28;20029;-60
2022/07/11 07:43:11;;;;;;;21.05;20.00;;;;;;;;;;5073208;28;20028;-61
2022/07/11 07:45:37;;;;;;;29.30;27.73;;;;;;;;;;5073083;28;20032;-60
2022/07/11 07:48:03;;;;;;;18.08;17.13;;;;;;;;;;5072974;28;20030;-60
2022/07/11 07:50:29;;;;;;;9.88;9.38;;;;;;;;;;5073119;28;20047;-60
2022/07/11 07:52:55;;;;;;;15.82;14.90;;;;;;;;;;5072838;28;20100;-61
2022/07/11 07:55:21;;;;;;;11.32;10.63;;;;;;;;;;5072909;28;20024;-61
2022/07/11 07:57:47;;;;;;;14.88;13.95;;;;;;;;;;5072950;28;20036;-60
2022/07/11 08:03:03;;;;;;;5.97;5.38;;;;;;;;;;5072959;28;20039;-60
2022/07/11 08:05:29;;;;;;;5.78;5.38;;;;;;;;;;5072679;28;20032;-60
2022/07/11 08:07:55;;;;;;;7.53;5.53;;;;;;;;;;5072768;28;20016;-61
2022/07/11 08:10:21;;;;;;;7.10;6.70;;;;;;;;;;5072589;28;20401;-60
2022/07/11 08:12:48;;;;;;;6.93;6.53;;;;;;;;;;5072409;28;20052;-61
2022/07/11 08:15:14;;;;;;;5.10;4.80;;;;;;;;;;5072482;28;20501;-60
2022/07/11 08:17:41;;;;;;;4.82;4.43;;;;;;;;;;5072464;28;20028;-60
2022/07/11 08:20:07;;;;;;;4.15;3.72;;;;;;;;;;5072190;28;20074;-61
2022/07/11 08:22:34;;;;;;;3.40;3.10;;;;;;;;;;5072581;28;20031;-60
2022/07/11 08:25:00;;;;;;;4.20;3.03;;;;;;;;;;5072694;28;20028;-60
2022/07/11 08:27:26;;;;;;;4.03;2.60;;;;;;;;;;5072406;28;20032;-61
2022/07/11 08:29:52;;;;;;;3.58;2.42;;;;;;;;;;5072310;28;20082;-60
2022/07/11 08:32:18;;;;;;;2.70;2.38;;;;;;;;;;5072262;28;20029;-60
2022/07/11 08:34:45;;;;;;;3.15;2.35;;;;;;;;;;5072273;28;20029;-61
2022/07/11 08:37:11;;;;;;;3.55;2.17;;;;;;;;;;5071994;28;20044;-60
2022/07/11 08:39:37;;;;;;;2.40;2.20;;;;;;;;;;5072268;28;20518;-61
2022/07/11 08:42:04;;;;;;;3.90;2.20;;;;;;;;;;5072262;28;20405;-61
2022/07/11 08:44:30;;;;;;;4.05;2.20;;;;;;;;;;5072026;28;20388;-60
2022/07/11 08:46:56;;;;;;;2.03;1.80;;;;;;;;;;5071597;28;20491;-61
2022/07/11 08:49:23;;;;;;;2.75;2.00;;;;;;;;;;5071706;28;20017;-61
2022/07/11 08:51:49;;;;;;;2.20;1.80;;;;;;;;;;5070837;28;20412;-60
2022/07/11 08:54:15;;;;;;;1.98;1.70;;;;;;;;;;5071481;28;20477;-60
2022/07/11 08:56:45;;;;;;;6.05;2.08;;;;;;;;;;5072463;28;20024;-61
2022/07/11 08:59:13;;;;;;;2.30;2.10;;;;;;;;;;5071929;28;20103;-61
2022/07/11 09:01:41;;;;;;;2.53;1.90;;;;;;;;;;5071983;28;20103;-61
2022/07/11 09:04:08;;;;;;;3.15;2.28;;;;;;;;;;5071629;28;20039;-61
2022/07/11 09:06:35;;;;;;;2.08;1.88;;;;;;;;;;5071671;28;20024;-60
2022/07/11 09:09:02;;;;;;;2.08;1.88;;;;;;;;;;5072310;28;20033;-60
2022/07/11 09:11:28;;;;;;;2.35;1.90;;;;;;;;;;5071655;28;20028;-61
2022/07/11 09:13:54;;;;;;;3.40;2.00;;;;;;;;;;5070778;28;20046;-61
2022/07/11 09:16:20;;;;;;;2.50;2.08;;;;;;;;;;5071716;28;20053;-60
2022/07/11 09:18:46;;;;;;;3.25;1.88;;;;;;;;;;5071825;28;20108;-60
2022/07/11 09:26:50;;;;;;;3.92;2.00;;;;;;;;;;5072296;28;20161;-60
2022/07/11 09:29:16;;;;;;;3.20;2.03;;;;;;;;;;5071392;28;20023;-60
2022/07/11 09:31:42;;;;;;;2.75;1.90;;;;;;;;;;5071386;28;20116;-60
2022/07/11 09:34:08;;;;;;;4.43;2.00;;;;;;;;;;5071533;28;20039;-60
2022/07/11 09:36:35;;;;;;;5.43;1.95;;;;;;;;;;5071432;28;20045;-60
2022/07/11 09:39:05;;;;;;;3.50;2.00;;;;;;;;;;5071555;28;20037;-60
2022/07/11 09:41:34;;;;;;;3.97;1.83;;;;;;;;;;5071740;28;20024;-61
2022/07/11 09:44:14;;;;;;;3.80;1.80;;;;;;;;;;5072173;28;20029;-60
2022/07/11 09:46:41;;;;;;;2.53;1.90;;;;;;;;;;5071283;28;20028;-60
2022/07/11 09:49:07;;;;;;;1.73;1.60;;;;;;;;;;5071543;28;20543;-61
2022/07/11 09:51:34;;;;;;;3.83;1.75;;;;;;;;;;5071621;28;20533;-61
2022/07/11 09:54:00;;;;;;;3.90;1.70;;;;;;;;;;5071418;28;20389;-60
2022/07/11 09:56:51;;;;;;;2.58;1.60;;;;;;;;;;5071527;28;20436;-60
2022/07/11 09:59:18;;;;;;;4.18;1.60;;;;;;;;;;5071468;28;20039;-61
2022/07/11 10:01:45;;;;;;;4.57;1.50;;;;;;;;;;5071208;28;20508;-61
2022/07/11 10:04:11;;;;;;;2.35;1.60;;;;;;;;;;5071741;28;20036;-60
2022/07/11 10:06:38;;;;;;;3.50;1.63;;;;;;;;;;5074903;28;20029;-60
2022/07/11 10:09:05;;;;;;;2.90;1.60;;;;;;;;;;5073864;28;20499;-60
2022/07/11 10:11:32;;;;;;;4.38;1.70;;;;;;;;;;5074407;28;20055;-62
2022/07/11 10:14:01;;;;;;;3.67;1.60;;;;;;;;;;5074717;28;20039;-61
2022/07/11 10:16:46;;;;;;;3.03;1.50;;;;;;;;;;5063445;28;20459;-61
2022/07/11 10:19:12;;;;;;;2.30;1.60;;;;;;;;;;5060430;28;20046;-60
2022/07/11 10:21:47;;;;;;;2.88;1.50;;;;;;;;;;5058536;28;20020;-61
2022/07/11 10:24:34;;;;;;;2.58;1.60;;;;;;;;;;5057192;28;20025;-61
2022/07/11 10:27:07;;;;;;;3.45;1.60;;;;;;;;;;5064177;28;20029;-61
2022/07/11 10:29:38;;;;;;;3.80;1.33;;;;;;;;;;5062064;28;20110;-61
2022/07/11 10:32:09;;;;;;;5.25;1.67;;;;;;;;;;5062306;28;20393;-61
2022/07/11 10:34:35;;;;;;;3.10;1.50;;;;;;;;;;5070869;28;20093;-61
2022/07/11 10:37:02;;;;;;;2.45;1.30;;;;;;;;;;5067858;28;20056;-60
2022/07/11 10:39:28;;;;;;;2.45;1.60;;;;;;;;;;5074363;28;20024;-61
2022/07/11 10:41:58;;;;;;;3.67;1.60;;;;;;;;;;5074846;28;20161;-60
2022/07/11 10:44:24;;;;;;;1.55;1.20;;;;;;;;;;5064086;28;20417;-61
2022/07/11 10:46:54;;;;;;;4.05;1.42;;;;;;;;;;5064171;28;20401;-61
2022/07/11 10:49:40;;;;;;;7.68;1.50;;;;;;;;;;5063928;28;20021;-61
2022/07/11 10:52:07;;;;;;;2.63;1.30;;;;;;;;;;5064130;28;20466;-60
2022/07/11 10:54:36;;;;;;;3.60;1.60;;;;;;;;;;5062325;28;20036;-61
2022/07/11 10:57:21;;;;;;;3.60;1.60;;;;;;;;;;5074250;28;20033;-61
2022/07/11 10:59:56;;;;;;;2.67;1.60;;;;;;;;;;5073779;28;20036;-60
2022/07/11 11:02:22;;;;;;;6.32;1.55;;;;;;;;;;5074022;28;20055;-58
2022/07/11 11:04:58;;;;;;;1.58;1.27;;;;;;;;;;5074741;28;20499;-60
2022/07/11 11:07:44;;;;;;;4.47;1.52;;;;;;;;;;5073986;28;20064;-60
2022/07/11 11:10:16;;;;;;;2.75;1.30;;;;;;;;;;5073757;28;20056;-60
2022/07/11 11:13:04;;;;;;;2.30;1.30;;;;;;;;;;5073155;28;20032;-60
2022/07/11 11:15:33;;;;;;;2.15;1.60;;;;;;;;;;5073388;28;20279;-60
2022/07/11 11:18:19;;;;;;;4.40;1.48;;;;;;;;;;5073802;28;20028;-60
2022/07/11 11:20:45;;;;;;;2.17;1.50;;;;;;;;;;5073534;28;20453;-60
2022/07/11 11:23:11;;;;;;;1.80;1.30;;;;;;;;;;5073850;28;20052;-60
2022/07/11 11:25:37;;;;;;;4.32;1.50;;;;;;;;;;5073395;28;20032;-60
2022/07/11 11:28:04;;;;;;;1.50;1.40;;;;;;;;;;5073179;28;20028;-60
2022/07/11 11:30:31;;;;;;;1.63;1.23;;;;;;;;;;5073336;28;20468;-61
2022/07/11 11:32:58;;;;;;;5.55;1.60;;;;;;;;;;5073192;28;20028;-60
2022/07/11 11:35:24;;;;;;;4.35;1.55;;;;;;;;;;5073551;28;20105;-60
2022/07/11 11:37:50;;;;;;;3.17;1.42;;;;;;;;;;5072983;28;20052;-60
2022/07/11 11:40:16;;;;;;;3.15;1.50;;;;;;;;;;5073319;28;20029;-60
2022/07/11 11:42:42;;;;;;;1.98;1.50;;;;;;;;;;5072906;28;20035;-60
2022/07/11 11:45:11;;;;;;;2.13;1.48;;;;;;;;;;5073631;28;20024;-61
2022/07/11 11:47:47;;;;;;;2.50;1.50;;;;;;;;;;5069412;28;20157;-60
2022/07/11 11:50:14;;;;;;;2.72;1.45;;;;;;;;;;5067026;28;20036;-60
2022/07/11 11:52:40;;;;;;;3.30;1.48;;;;;;;;;;5062513;28;20024;-60
2022/07/11 11:55:09;;;;;;;2.90;1.30;;;;;;;;;;5072486;28;20040;-60
2022/07/11 11:57:35;;;;;;;1.40;1.30;;;;;;;;;;5072797;28;20013;-60
2022/07/11 12:00:01;;;;;;;2.25;1.27;;;;;;;;;;5072897;28;20032;-61
2022/07/11 12:02:28;;;;;;;1.73;1.45;;;;;;;;;;5072960;28;20016;-61
2022/07/11 12:04:54;;;;;;;2.60;1.50;;;;;;;;;;5072664;28;20025;-60
2022/07/11 12:07:28;;;;;;;3.20;1.50;;;;;;;;;;5072691;28;20021;-60
2022/07/11 12:09:55;;;;;;;4.25;1.50;;;;;;;;;;5073290;28;20420;-60
2022/07/11 12:12:45;;;;;;;1.40;1.30;;;;;;;;;;5072356;28;20035;-59
2022/07/11 12:15:26;;;;;;;2.35;1.23;;;;;;;;;;5072724;28;20089;-60
2022/07/11 12:17:52;;;;;;;3.53;1.35;;;;;;;;;;5073058;28;20029;-61
2022/07/11 12:20:34;;;;;;;3.83;1.30;;;;;;;;;;5072741;28;20035;-61
2022/07/11 12:23:00;;;;;;;3.30;1.37;;;;;;;;;;5072747;28;20032;-60
2022/07/11 12:25:27;;;;;;;2.83;1.50;;;;;;;;;;5071984;28;20107;-61
2022/07/11 12:27:59;;;;;;;2.78;1.30;;;;;;;;;;5071967;28;20477;-60
2022/07/11 12:30:25;;;;;;;3.03;1.40;;;;;;;;;;5072443;28;20027;-61
2022/07/11 12:33:04;;;;;;;2.95;1.40;;;;;;;;;;5072178;28;20036;-61
2022/07/11 12:35:30;;;;;;;3.30;1.65;;;;;;;;;;5072130;28;20052;-60
2022/07/11 12:37:56;;;;;;;1.83;1.50;;;;;;;;;;5071676;28;20032;-60
2022/07/11 12:40:22;;;;;;;3.30;1.58;;;;;;;;;;5071996;28;20378;-61
2022/07/11 12:42:48;;;;;;;2.40;1.70;;;;;;;;;;5072438;28;20555;-61
2022/07/11 12:45:17;;;;;;;2.28;1.30;;;;;;;;;;5072423;28;20029;-60
2022/07/11 12:47:44;;;;;;;5.10;1.60;;;;;;;;;;5072045;28;20024;-60
2022/07/11 12:50:14;;;;;;;2.53;1.50;;;;;;;;;;5071726;28;20484;-60
2022/07/11 12:52:41;;;;;;;3.10;1.55;;;;;;;;;;5072549;28;20048;-60
2022/07/11 12:55:11;;;;;;;3.85;1.40;;;;;;;;;;5071708;28;20333;-60
2022/07/11 12:57:38;;;;;;;6.72;1.75;;;;;;;;;;5072082;28;20082;-60
2022/07/11 13:00:15;;;;;;;4.00;1.48;;;;;;;;;;5072660;28;20028;-61
2022/07/11 13:02:41;;;;;;;4.10;1.27;;;;;;;;;;5071868;28;20025;-60
2022/07/11 13:05:07;;;;;;;2.80;1.38;;;;;;;;;;5071909;28;20032;-60
2022/07/11 13:10:23;;;;;;;2.33;1.60;;;;;;;;;;5072259;28;20048;-61
2022/07/11 13:12:50;;;;;;;2.38;1.60;;;;;;;;;;5072027;28;20389;-61
2022/07/11 13:15:18;;;;;;;2.92;1.40;;;;;;;;;;5071906;28;20035;-61
2022/07/11 13:17:54;;;;;;;3.17;1.70;;;;;;;;;;5071831;28;20029;-61
2022/07/11 13:20:22;;;;;;;1.80;1.38;;;;;;;;;;5072168;28;20233;-60
2022/07/11 13:22:49;;;;;;;3.95;1.58;;;;;;;;;;5071342;28;20456;-62
2022/07/11 13:25:16;;;;;;;2.95;1.50;;;;;;;;;;5071828;28;20070;-61
2022/07/11 13:27:43;;;;;;;2.58;1.40;;;;;;;;;;5069242;28;20029;-60
2022/07/11 13:30:12;;;;;;;2.42;1.33;;;;;;;;;;5067198;28;20025;-60
2022/07/11 13:32:41;;;;;;;2.33;1.50;;;;;;;;;;5069746;28;20458;-60
2022/07/11 13:35:07;;;;;;;3.75;1.50;;;;;;;;;;5070389;28;20082;-60
2022/07/11 13:37:35;;;;;;;1.50;1.30;;;;;;;;;;5058568;28;20025;-60
2022/07/11 13:40:04;;;;;;;2.70;1.45;;;;;;;;;;5073255;28;20048;-60
2022/07/11 13:42:32;;;;;;;3.90;1.48;;;;;;;;;;5074685;28;20393;-60
2022/07/11 13:44:58;;;;;;;2.08;1.40;;;;;;;;;;5075197;28;20029;-60
2022/07/11 13:47:24;;;;;;;3.05;1.40;;;;;;;;;;5075041;28;20609;-60
2022/07/11 13:49:50;;;;;;;2.05;1.35;;;;;;;;;;5074483;28;20023;-60
2022/07/11 13:52:16;;;;;;;2.92;1.50;;;;;;;;;;5073949;28;20508;-60
2022/07/11 13:54:42;;;;;;;2.15;1.30;;;;;;;;;;5074867;28;20393;-60
2022/07/11 13:57:09;;;;;;;2.97;1.50;;;;;;;;;;5075062;28;20489;-60
2022/07/11 13:59:35;;;;;;;1.60;1.50;;;;;;;;;;5074087;28;20029;-61
2022/07/11 14:02:01;;;;;;;3.03;1.50;;;;;;;;;;5075355;28;20400;-62
2022/07/11 14:04:28;;;;;;;3.40;1.60;;;;;;;;;;5073874;28;20039;-60
2022/07/11 14:06:54;;;;;;;1.92;1.40;;;;;;;;;;5074132;28;20059;-61
2022/07/11 14:09:20;;;;;;;2.15;1.40;;;;;;;;;;5074062;28;20396;-60
2022/07/11 14:11:46;;;;;;;2.53;1.42;;;;;;;;;;5074911;28;20063;-60
2022/07/11 14:14:12;;;;;;;1.88;1.27;;;;;;;;;;5074929;28;20489;-61
2022/07/11 14:16:38;;;;;;;2.05;1.48;;;;;;;;;;5074886;28;20157;-60
2022/07/11 14:19:07;;;;;;;1.98;1.50;;;;;;;;;;5074592;28;20060;-61
2022/07/11 14:21:34;;;;;;;4.22;1.40;;;;;;;;;;5074394;28;20377;-60
2022/07/11 14:24:00;;;;;;;3.10;1.58;;;;;;;;;;5074873;28;20024;-60
2022/07/11 14:26:26;;;;;;;2.42;1.40;;;;;;;;;;5075065;28;20086;-60
2022/07/11 14:28:52;;;;;;;2.95;1.40;;;;;;;;;;5074872;28;20325;-60
2022/07/11 14:31:19;;;;;;;2.47;1.40;;;;;;;;;;5074700;28;20090;-60
2022/07/11 14:33:45;;;;;;;4.70;1.50;;;;;;;;;;5073151;28;20052;-60
2022/07/11 14:36:11;;;;;;;3.38;1.30;;;;;;;;;;5073993;28;20162;-61
2022/07/11 14:38:39;;;;;;;2.72;1.42;;;;;;;;;;5074251;28;20489;-61
2022/07/11 14:41:05;;;;;;;5.03;1.50;;;;;;;;;;5074841;28;20033;-61
2022/07/11 14:43:31;;;;;;;4.93;1.45;;;;;;;;;;5074288;28;20078;-61
2022/07/11 14:45:58;;;;;;;1.52;1.42;;;;;;;;;;5074304;28;20032;-61
2022/07/11 14:48:24;;;;;;;2.55;1.40;;;;;;;;;;5074382;28;20400;-61
2022/07/11 14:50:50;;;;;;;3.35;1.30;;;;;;;;;;5073350;28;20020;-60
2022/07/11 14:53:16;;;;;;;1.50;1.40;;;;;;;;;;5074285;28;20025;-60